createdAt,value
2023-02-11T00:01:36.520Z,37.72
2023-02-11T00:04:07.024Z,43.65
2023-02-11T00:06:41.039Z,36.47
2023-02-11T00:09:09.227Z,37.88
2023-02-11T00:11:37.137Z,35.75
2023-02-11T00:14:07.801Z,40.17
2023-02-11T00:16:36.071Z,42.40
2023-02-11T00:19:06.891Z,35.72
2023-02-11T00:21:35.440Z,40.65
2023-02-11T00:24:03.303Z,36.20
2023-02-11T00:26:33.438Z,34.95
2023-02-11T00:29:02.340Z,39.78
2023-02-11T00:31:33.098Z,36.53
2023-02-11T00:34:07.027Z,37.00
2023-02-11T00:36:35.058Z,36.60
2023-02-11T00:39:03.195Z,37.47
2023-02-11T00:41:31.611Z,31.00
2023-02-11T00:44:00.500Z,32.10
2023-02-11T00:46:28.742Z,38.92
2023-02-11T00:48:58.029Z,34.45
2023-02-11T00:51:27.849Z,40.22
2023-02-11T00:53:58.532Z,38.00
2023-02-11T00:56:26.814Z,37.03
2023-02-11T00:58:54.945Z,34.95
2023-02-11T01:01:26.777Z,34.05
2023-02-11T01:03:57.990Z,37.03
2023-02-11T01:06:28.223Z,28.95
2023-02-11T01:08:56.262Z,32.55
2023-02-11T01:11:25.151Z,35.10
2023-02-11T01:13:53.096Z,35.08
2023-02-11T01:16:22.757Z,34.15
2023-02-11T01:18:50.790Z,30.77
2023-02-11T01:21:19.284Z,42.58
2023-02-11T01:23:49.187Z,35.05
2023-02-11T01:26:17.139Z,33.00
2023-02-11T01:28:45.466Z,35.53
2023-02-11T01:31:13.477Z,28.92
2023-02-11T01:33:41.439Z,28.08
2023-02-11T01:36:09.964Z,38.15
2023-02-11T01:38:38.281Z,33.03
2023-02-11T01:41:09.436Z,31.10
2023-02-11T01:43:40.071Z,34.42
2023-02-11T01:46:32.886Z,39.30
2023-02-11T01:49:05.636Z,33.33
2023-02-11T01:51:37.473Z,36.65
2023-02-11T01:54:24.529Z,28.38
2023-02-11T01:57:13.896Z,29.33
2023-02-11T01:59:57.830Z,35.45
2023-02-11T02:02:29.436Z,35.67
2023-02-11T02:05:01.970Z,28.20
2023-02-11T02:07:34.223Z,29.67
2023-02-11T02:10:07.018Z,31.88
2023-02-11T02:12:38.580Z,33.03
2023-02-11T02:15:20.894Z,31.80
2023-02-11T02:17:55.838Z,33.83
2023-02-11T02:20:58.156Z,31.20
2023-02-11T02:23:37.756Z,32.05
2023-02-11T02:26:38.847Z,30.98
2023-02-11T02:29:23.049Z,40.35
2023-02-11T02:32:18.066Z,33.03
2023-02-11T02:34:51.079Z,36.90
2023-02-11T02:37:23.209Z,29.30
2023-02-11T02:39:51.456Z,36.45
2023-02-11T02:42:19.701Z,34.95
2023-02-11T02:44:50.175Z,33.15
2023-02-11T02:47:19.579Z,36.58
2023-02-11T02:49:47.565Z,30.45
2023-02-11T02:52:26.042Z,37.85
2023-02-11T02:55:13.615Z,34.25
2023-02-11T02:57:52.959Z,34.55
2023-02-11T03:00:25.448Z,36.63
2023-02-11T03:03:02.633Z,39.28
2023-02-11T03:05:34.181Z,32.47
2023-02-11T03:08:08.476Z,29.30
2023-02-11T03:10:38.475Z,30.25
2023-02-11T03:13:07.468Z,41.20
2023-02-11T03:15:39.516Z,32.85
2023-02-11T03:18:10.879Z,32.53
2023-02-11T03:20:40.404Z,36.28
2023-02-11T03:23:12.489Z,31.95
2023-02-11T03:25:45.522Z,32.33
2023-02-11T03:28:17.617Z,35.85
2023-02-11T03:30:50.386Z,31.80
2023-02-11T03:33:25.363Z,34.40
2023-02-11T03:35:56.241Z,30.77
2023-02-11T03:38:27.646Z,37.97
2023-02-11T03:40:56.982Z,32.30
2023-02-11T03:43:28.225Z,35.97
2023-02-11T03:45:56.668Z,34.58
2023-02-11T03:48:28.391Z,30.45
2023-02-11T03:50:56.922Z,31.25
2023-02-11T03:53:24.900Z,28.92
2023-02-11T03:55:55.542Z,32.58
2023-02-11T03:58:23.467Z,32.80
2023-02-11T04:00:51.440Z,31.77
2023-02-11T04:03:19.887Z,36.92
2023-02-11T04:05:51.865Z,32.38
2023-02-11T04:08:19.966Z,31.00
2023-02-11T04:10:48.209Z,26.88
2023-02-11T04:13:16.116Z,29.35
2023-02-11T04:15:44.315Z,36.08
2023-02-11T04:18:12.683Z,36.00
2023-02-11T04:20:41.036Z,27.88
2023-02-11T04:23:11.167Z,37.08
2023-02-11T04:25:39.013Z,27.77
2023-02-11T04:28:07.284Z,33.00
2023-02-11T04:30:35.541Z,28.65
2023-02-11T04:33:03.340Z,26.02
2023-02-11T04:35:31.322Z,32.17
2023-02-11T04:37:59.381Z,36.60
2023-02-11T04:40:28.730Z,26.45
2023-02-11T04:42:56.772Z,22.40
2023-02-11T04:45:25.016Z,29.75
2023-02-11T04:47:53.329Z,24.52
2023-02-11T04:50:21.167Z,30.10
2023-02-11T04:52:49.340Z,28.05
2023-02-11T04:55:17.386Z,22.85
2023-02-11T04:57:47.066Z,25.73
2023-02-11T05:00:16.093Z,23.05
2023-02-11T05:02:44.045Z,23.42
2023-02-11T05:05:11.914Z,25.42
2023-02-11T05:07:40.080Z,24.02
2023-02-11T05:10:08.068Z,21.48
2023-02-11T05:12:36.015Z,21.85
2023-02-11T05:15:06.501Z,20.25
2023-02-11T05:17:34.485Z,22.35
2023-02-11T05:20:02.757Z,19.88
2023-02-11T05:22:31.226Z,16.17
2023-02-11T05:24:59.455Z,18.35
2023-02-11T05:27:27.269Z,17.48
2023-02-11T05:29:55.110Z,16.73
2023-02-11T05:32:24.847Z,18.27
2023-02-11T05:34:52.701Z,24.42
2023-02-11T05:37:20.708Z,16.50
2023-02-11T05:39:49.350Z,15.98
2023-02-11T05:42:17.254Z,17.60
2023-02-11T05:44:45.702Z,17.70
2023-02-11T05:47:13.772Z,17.77
2023-02-11T05:49:43.076Z,14.07
2023-02-11T05:52:11.002Z,15.88
2023-02-11T05:54:39.362Z,14.35
2023-02-11T05:57:07.356Z,13.90
2023-02-11T05:59:35.148Z,16.30
2023-02-11T06:02:03.188Z,20.30
2023-02-11T06:04:30.981Z,16.45
2023-02-11T06:07:00.137Z,15.57
2023-02-11T06:09:28.148Z,16.98
2023-02-11T06:11:56.246Z,18.52
2023-02-11T06:14:24.573Z,15.90
2023-02-11T06:16:52.422Z,14.48
2023-02-11T06:19:20.373Z,19.77
2023-02-11T06:21:48.362Z,16.33
2023-02-11T06:24:31.553Z,16.50
2023-02-11T06:27:05.762Z,20.00
2023-02-11T06:29:33.711Z,15.05
2023-02-11T06:32:01.671Z,13.05
2023-02-11T06:34:29.991Z,19.27
2023-02-11T06:36:58.036Z,18.75
2023-02-11T06:39:27.647Z,22.13
2023-02-11T06:41:55.595Z,21.38
2023-02-11T06:44:32.661Z,18.08
2023-02-11T06:47:00.883Z,21.20
2023-02-11T06:49:28.985Z,19.05
2023-02-11T06:52:08.852Z,16.75
2023-02-11T06:54:43.104Z,18.27
2023-02-11T06:57:12.360Z,15.77
2023-02-11T06:59:43.471Z,20.27
2023-02-11T07:02:17.992Z,14.77
2023-02-11T07:04:55.172Z,18.77
2023-02-11T07:07:23.169Z,15.73
2023-02-11T07:10:16.714Z,20.85
2023-02-11T07:12:58.852Z,18.00
2023-02-11T07:15:29.348Z,19.63
2023-02-11T07:17:58.276Z,20.98
2023-02-11T07:20:26.607Z,21.10
2023-02-11T07:22:54.543Z,15.30
2023-02-11T07:25:24.362Z,16.92
2023-02-11T07:27:52.592Z,14.32
2023-02-11T07:30:21.150Z,17.60
2023-02-11T07:32:49.198Z,16.23
2023-02-11T07:35:18.010Z,17.35
2023-02-11T07:37:46.240Z,18.13
2023-02-11T07:40:14.265Z,19.23
2023-02-11T07:42:43.789Z,17.52
2023-02-11T07:45:12.645Z,18.15
2023-02-11T07:47:42.652Z,16.98
2023-02-11T07:50:10.836Z,17.73
2023-02-11T07:52:39.321Z,19.25
2023-02-11T07:55:07.965Z,17.95
2023-02-11T07:57:35.970Z,17.05
2023-02-11T08:00:09.280Z,16.20
2023-02-11T08:02:40.569Z,17.98
2023-02-11T08:05:11.704Z,18.85
2023-02-11T08:07:52.243Z,18.40
2023-02-11T08:10:24.835Z,16.70
2023-02-11T08:12:56.065Z,20.73
2023-02-11T08:15:30.020Z,16.02
2023-02-11T08:17:58.013Z,17.98
2023-02-11T08:20:26.552Z,16.05
2023-02-11T08:22:56.659Z,15.77
2023-02-11T08:25:25.421Z,17.45
2023-02-11T08:27:57.184Z,16.60
2023-02-11T08:30:32.854Z,13.05
2023-02-11T08:33:04.331Z,18.60
2023-02-11T08:35:37.201Z,17.10
2023-02-11T08:38:05.486Z,16.42
2023-02-11T08:40:33.554Z,19.15
2023-02-11T08:43:01.830Z,15.73
2023-02-11T08:45:33.153Z,16.08
2023-02-11T08:48:02.022Z,16.40
2023-02-11T08:50:29.972Z,11.85
2023-02-11T08:52:57.832Z,13.77
2023-02-11T08:55:26.126Z,17.60
2023-02-11T08:57:53.948Z,14.95
2023-02-11T09:29:35.634Z,10.95
2023-02-11T09:32:03.781Z,11.45
2023-02-11T09:34:31.959Z,13.60
2023-02-11T09:38:08.844Z,17.42
2023-02-11T09:40:36.563Z,22.83
2023-02-11T09:43:07.027Z,10.02
2023-02-11T09:45:38.426Z,14.90
2023-02-11T09:48:12.537Z,13.55
2023-02-11T09:50:43.038Z,15.18
2023-02-11T09:53:13.302Z,17.88
2023-02-11T09:55:43.266Z,14.43
2023-02-11T09:58:14.480Z,11.27
2023-02-11T10:00:46.328Z,15.13
2023-02-11T10:03:43.516Z,15.32
2023-02-11T10:06:26.037Z,13.63
2023-02-11T10:09:02.841Z,18.60
2023-02-11T10:11:39.469Z,13.70
2023-02-11T10:14:19.448Z,15.98
2023-02-11T10:16:58.408Z,13.40
2023-02-11T10:19:35.527Z,7.10
2023-02-11T10:22:09.328Z,8.07
2023-02-11T10:24:37.243Z,11.25
2023-02-11T10:27:09.705Z,8.93
2023-02-11T10:29:39.933Z,12.18
2023-02-11T10:32:26.511Z,6.30
2023-02-11T10:34:57.235Z,10.35
2023-02-11T10:37:25.106Z,12.77
2023-02-11T10:39:52.772Z,9.68
2023-02-11T10:42:20.449Z,9.80
2023-02-11T10:44:58.339Z,10.57
2023-02-11T10:47:32.686Z,10.40
2023-02-11T10:50:03.645Z,11.77
2023-02-11T10:52:32.621Z,9.93
2023-02-11T10:55:05.083Z,9.40
2023-02-11T10:57:38.635Z,7.97
2023-02-11T11:00:22.068Z,8.93
2023-02-11T11:02:57.255Z,7.35
2023-02-11T11:05:31.697Z,9.85
2023-02-11T11:08:01.895Z,12.07
2023-02-11T11:10:44.275Z,12.88
2023-02-11T11:13:30.366Z,13.38
2023-02-11T11:16:22.266Z,11.23
2023-02-11T11:18:52.650Z,10.52
2023-02-11T11:21:23.855Z,15.02
2023-02-11T12:21:44.092Z,9.27
2023-02-11T12:24:42.395Z,9.82
2023-02-11T12:27:15.987Z,10.18
2023-02-11T12:30:02.069Z,11.20
2023-02-11T12:32:36.572Z,11.05
2023-02-11T12:35:17.876Z,9.77
2023-02-11T12:37:59.733Z,9.07
2023-02-11T12:40:33.170Z,9.30
2023-02-11T12:43:18.337Z,9.02
2023-02-11T12:46:20.706Z,7.50
2023-02-11T12:49:02.726Z,7.35
2023-02-11T12:51:41.622Z,10.07
2023-02-11T12:54:18.768Z,15.40
2023-02-11T12:56:51.600Z,10.00
2023-02-11T12:59:30.164Z,8.35
2023-02-11T13:01:58.346Z,14.65
2023-02-11T13:04:29.443Z,14.45
2023-02-11T13:06:59.234Z,10.73
2023-02-11T13:09:32.914Z,9.05
2023-02-11T13:12:25.500Z,19.08
2023-02-11T13:14:55.347Z,10.82
2023-02-11T13:17:28.582Z,11.68
2023-02-11T13:20:00.341Z,15.82
2023-02-11T13:22:32.116Z,17.25
2023-02-11T13:25:06.110Z,11.13
2023-02-11T13:27:39.936Z,13.73
2023-02-11T13:30:28.179Z,14.98
2023-02-11T13:33:32.664Z,12.25
2023-02-11T13:36:18.276Z,14.38
2023-02-11T13:38:54.545Z,11.73
2023-02-11T13:41:31.641Z,12.93
2023-02-11T13:44:01.792Z,15.15
2023-02-11T13:46:31.850Z,13.45
2023-02-11T13:49:00.048Z,15.07
2023-02-11T13:51:36.998Z,16.15
2023-02-11T13:54:05.778Z,13.05
2023-02-11T13:56:38.085Z,10.02
2023-02-11T13:59:08.020Z,13.98
2023-02-11T14:02:19.818Z,14.40
2023-02-11T14:05:28.259Z,14.15
2023-02-11T14:08:33.119Z,10.75
2023-02-11T14:11:02.624Z,8.93
2023-02-11T14:13:32.635Z,10.98
2023-02-11T14:16:08.774Z,5.65
2023-02-11T14:18:55.583Z,8.55
2023-02-11T14:21:25.493Z,5.47
2023-02-11T14:23:54.193Z,5.93
2023-02-11T14:26:30.576Z,4.72
2023-02-11T14:29:07.448Z,5.35
2023-02-11T14:31:39.950Z,5.38
2023-02-11T14:34:33.117Z,5.55
2023-02-11T14:37:15.166Z,4.45
2023-02-11T14:39:57.862Z,5.28
2023-02-11T14:42:28.203Z,7.38
2023-02-11T14:44:59.665Z,7.65
2023-02-11T14:47:30.695Z,6.50
2023-02-11T14:49:58.452Z,4.93
2023-02-11T14:52:29.002Z,4.43
2023-02-11T14:55:04.081Z,7.03
2023-02-11T14:57:31.790Z,5.80
2023-02-11T15:00:03.193Z,4.85
2023-02-11T15:02:35.042Z,5.20
2023-02-11T15:05:17.352Z,5.15
2023-02-11T15:07:46.961Z,6.43
2023-02-11T15:10:28.094Z,9.50
2023-02-11T15:12:56.331Z,5.43
2023-02-11T15:15:29.286Z,5.25
2023-02-11T15:17:59.993Z,8.63
2023-02-11T16:01:44.808Z,11.18
2023-02-11T16:04:17.356Z,11.00
2023-02-11T16:06:47.679Z,10.30
2023-02-11T16:09:28.424Z,11.50
2023-02-11T16:11:59.132Z,8.60
2023-02-11T16:14:32.295Z,9.70
2023-02-11T16:17:04.337Z,9.65
2023-02-11T16:19:33.950Z,8.35
2023-02-11T16:22:04.533Z,4.85
2023-02-11T16:24:38.861Z,5.35
2023-02-11T16:27:22.835Z,7.10
2023-02-11T16:29:51.646Z,6.78
2023-02-11T16:32:31.578Z,8.95
2023-02-11T16:35:03.452Z,8.75
2023-02-11T16:37:32.622Z,7.20
2023-02-11T16:40:01.708Z,9.55
2023-02-11T16:42:32.804Z,8.73
2023-02-11T16:45:13.698Z,9.48
2023-02-11T16:47:44.087Z,9.20
2023-02-11T16:50:20.880Z,8.57
2023-02-11T16:52:49.087Z,10.93
2023-02-11T16:55:16.990Z,10.05
2023-02-11T16:57:44.743Z,9.25
2023-02-11T17:00:17.258Z,9.80
2023-02-11T17:02:46.498Z,11.48
2023-02-11T17:05:18.688Z,10.05
2023-02-11T17:07:46.725Z,12.07
2023-02-11T17:10:16.411Z,11.95
2023-02-11T17:12:46.965Z,10.43
2023-02-11T17:15:19.370Z,13.82
2023-02-11T17:17:51.948Z,9.70
2023-02-11T17:20:23.501Z,17.73
2023-02-11T17:22:54.025Z,8.25
2023-02-11T17:25:23.327Z,9.60
2023-02-11T17:27:52.916Z,9.85
2023-02-11T17:30:22.895Z,12.82
2023-02-11T17:32:52.298Z,7.70
2023-02-11T17:35:20.141Z,8.98
2023-02-11T17:37:47.858Z,9.48
2023-02-11T17:40:15.927Z,8.82
2023-02-11T17:42:43.795Z,7.32
2023-02-11T17:45:13.133Z,11.27
2023-02-11T17:47:40.896Z,9.35
2023-02-11T17:50:11.694Z,11.60
2023-02-11T17:52:39.548Z,7.32
2023-02-11T17:55:07.831Z,8.63
2023-02-11T17:57:35.678Z,6.47
2023-02-11T18:00:03.436Z,5.80
2023-02-11T18:02:40.500Z,10.63
2023-02-11T18:05:10.516Z,10.02
2023-02-11T18:07:38.338Z,8.27
2023-02-11T18:10:08.058Z,11.27
2023-02-11T18:12:35.833Z,9.73
2023-02-11T18:15:04.466Z,7.38
2023-02-11T18:17:32.577Z,10.55
2023-02-11T18:20:00.308Z,8.15
2023-02-11T18:22:33.613Z,8.63
2023-02-11T18:25:01.601Z,8.75
2023-02-11T18:27:29.333Z,11.10
2023-02-11T18:29:57.090Z,5.70
2023-02-11T18:32:24.986Z,5.78
2023-02-11T18:34:53.000Z,6.32
2023-02-11T18:37:20.771Z,7.97
2023-02-11T18:39:49.988Z,4.78
2023-02-11T18:42:17.674Z,8.63
2023-02-11T18:44:45.495Z,13.60
2023-02-11T18:47:13.226Z,10.55
2023-02-11T18:49:41.500Z,17.27
2023-02-11T18:52:09.261Z,18.75
2023-02-11T18:54:37.458Z,22.80
2023-02-11T18:57:06.448Z,24.10
2023-02-11T18:59:34.397Z,21.00
2023-02-11T19:02:02.106Z,23.83
2023-02-11T19:04:29.879Z,22.65
2023-02-11T19:06:59.685Z,21.95
2023-02-11T19:09:27.470Z,28.08
2023-02-11T19:11:57.357Z,26.00
2023-02-11T19:14:28.320Z,28.00
2023-02-11T19:16:57.724Z,21.88
2023-02-11T19:19:28.203Z,24.23
2023-02-11T19:21:57.202Z,22.85
2023-02-11T19:24:26.093Z,21.13
2023-02-11T19:26:56.035Z,17.77
2023-02-11T19:29:25.788Z,16.98
2023-02-11T19:31:53.705Z,18.83
2023-02-11T19:34:22.777Z,23.88
2023-02-11T19:36:51.625Z,21.20
2023-02-11T19:39:19.629Z,16.88
2023-02-11T19:41:47.430Z,22.50
2023-02-11T19:44:16.032Z,21.17
2023-02-11T19:46:45.980Z,23.40
2023-02-11T19:49:17.611Z,19.83
2023-02-11T19:51:45.396Z,18.92
2023-02-11T19:54:13.158Z,20.50
2023-02-11T19:56:41.004Z,22.02
2023-02-11T19:59:09.036Z,25.63
2023-02-11T20:01:37.366Z,23.83
2023-02-11T20:04:06.950Z,20.67
2023-02-11T20:06:35.991Z,27.17
2023-02-11T20:09:06.201Z,23.02
2023-02-11T20:11:34.827Z,20.65
2023-02-11T20:14:02.456Z,19.88
2023-02-11T20:16:47.029Z,26.95
2023-02-11T20:19:18.653Z,21.00
2023-02-11T20:21:48.096Z,21.85
2023-02-11T20:24:17.305Z,24.77
2023-02-11T20:26:46.852Z,20.40
2023-02-11T20:29:15.162Z,16.98
2023-02-11T20:31:43.248Z,19.33
2023-02-11T20:34:13.105Z,24.25
2023-02-11T20:36:42.296Z,22.55
2023-02-11T20:39:17.043Z,22.02
2023-02-11T20:41:45.905Z,29.45
2023-02-11T20:44:13.907Z,25.45
2023-02-11T20:46:45.780Z,28.20
2023-02-11T20:49:15.877Z,32.22
2023-02-11T20:51:45.979Z,23.33
2023-02-11T20:54:14.505Z,34.35
2023-02-11T20:56:47.455Z,27.80
2023-02-11T20:59:16.631Z,23.20
2023-02-11T21:01:50.646Z,22.63
2023-02-11T21:04:23.158Z,30.42
2023-02-11T21:06:57.466Z,34.63
2023-02-11T21:09:29.513Z,26.45
2023-02-11T21:11:57.745Z,31.60
2023-02-11T21:14:27.805Z,29.02
2023-02-11T21:16:58.482Z,32.45
2023-02-11T21:19:30.205Z,30.58
2023-02-11T21:22:00.831Z,28.33
2023-02-11T21:24:30.639Z,31.75
2023-02-11T21:26:58.589Z,28.98
2023-02-11T21:29:26.760Z,27.10
2023-02-11T21:31:54.472Z,24.83
2023-02-11T21:34:22.310Z,31.42
2023-02-11T21:36:51.229Z,31.27
2023-02-11T21:39:21.171Z,31.00
2023-02-11T21:41:48.973Z,27.60
2023-02-11T21:44:16.864Z,28.80
2023-02-11T21:46:44.624Z,28.02
2023-02-11T21:49:12.457Z,27.88
2023-02-11T21:51:41.288Z,29.70
2023-02-11T21:54:09.001Z,25.90
2023-02-11T21:56:38.032Z,31.38
2023-02-11T21:59:05.736Z,24.75
2023-02-11T22:01:35.126Z,28.48
2023-02-11T22:04:03.218Z,27.20
2023-02-11T22:06:33.999Z,22.42
2023-02-11T22:09:06.105Z,26.10
2023-02-11T22:11:33.875Z,26.67
2023-02-11T22:14:03.068Z,24.80
2023-02-11T22:16:34.590Z,23.23
2023-02-11T22:19:03.499Z,22.00
2023-02-11T22:21:31.358Z,24.33
2023-02-11T22:23:59.122Z,28.83
2023-02-11T22:26:28.223Z,22.95
2023-02-11T22:28:56.636Z,20.67
2023-02-11T22:31:28.277Z,21.55
2023-02-11T22:33:56.344Z,21.20
2023-02-11T22:36:25.680Z,20.30
2023-02-11T22:38:54.510Z,22.88
2023-02-11T22:41:23.187Z,23.75
2023-02-11T22:43:51.080Z,20.63
2023-02-11T22:46:20.725Z,20.50
2023-02-11T22:48:51.063Z,20.92
2023-02-11T22:51:21.598Z,18.52
2023-02-11T22:53:54.220Z,19.55
2023-02-11T22:56:22.786Z,18.27
2023-02-11T22:58:51.077Z,15.07
2023-02-11T23:01:19.233Z,16.98
2023-02-11T23:03:47.574Z,15.60
2023-02-11T23:06:16.677Z,15.40
2023-02-11T23:08:45.203Z,22.75
2023-02-11T23:11:15.705Z,20.25
2023-02-11T23:13:44.488Z,19.23
2023-02-11T23:16:14.645Z,15.80
2023-02-11T23:18:44.133Z,18.80
2023-02-11T23:21:15.896Z,19.23
2023-02-11T23:23:45.232Z,18.30
2023-02-11T23:26:14.288Z,18.55
2023-02-11T23:28:42.100Z,14.65
2023-02-11T23:31:18.358Z,15.10
2023-02-11T23:33:47.456Z,17.58
2023-02-11T23:36:16.332Z,20.58
2023-02-11T23:38:45.702Z,18.17
2023-02-11T23:41:13.860Z,17.25
2023-02-11T23:43:41.728Z,18.45
2023-02-11T23:46:10.002Z,16.40
2023-02-11T23:48:38.568Z,22.08
2023-02-11T23:51:07.440Z,17.52
2023-02-11T23:53:35.195Z,19.15
2023-02-11T23:56:07.785Z,19.85
2023-02-11T23:58:35.561Z,22.15
